sensor_id;sensor_type;location;lat;lon;timestamp;pressure;altitude;pressure_sealevel;temperature;humidity
15558;BME280;7880;50.110;9.372;2022-10-16T00:01:14;14.455734658247092;;;14.375;100.0
15558;BME280;7880;50.110;9.372;2022-10-16T00:06:12;14.450692129344679;;;14.375;100.0
15558;BME280;7880;50.110;9.372;2022-10-16T00:11:13;14.455734658247092;;;14.437;100.0
15558;BME280;7880;50.110;9.372;2022-10-16T00:16:14;14.460777187440545;;;14.437;100.0
15558;BME280;7880;50.110;9.372;2022-10-16T00:21:20;14.440607072412968;;;14.437;100.0
15558;BME280;7880;50.110;9.372;2022-10-16T00:26:23;14.465819716925035;;;14.437;100.0
15558;BME280;7880;50.110;9.372;2022-10-16T00:31:30;14.425479489198187;;;14.375;100.0
15558;BME280;7880;50.110;9.372;2022-10-16T00:36:37;14.460777187440545;;;14.437;100.0
15558;BME280;7880;50.110;9.372;2022-10-16T00:41:39;14.465819716925035;;;14.437;100.0
15558;BME280;7880;50.110;9.372;2022-10-16T00:46:43;14.440607072412968;;;14.375;100.0
15558;BME280;7880;50.110;9.372;2022-10-16T00:51:50;14.380096755269914;;;14.312;100.0
15558;BME280;7880;50.110;9.372;2022-10-16T00:56:53;14.364969182532514;;;14.312;100.0
15558;BME280;7880;50.110;9.372;2022-10-16T01:02:09;14.334714044915746;;;14.25;100.0
15558;BME280;7880;50.110;9.372;2022-10-16T01:07:10;14.289331358135678;;;14.25;100.0
15558;BME280;7880;50.110;9.372;2022-10-16T01:12:15;14.314543958992;;;14.25;100.0
15558;BME280;7880;50.110;9.372;2022-10-16T01:17:28;14.294373877724865;;;14.25;100.0
15558;BME280;7880;50.110;9.372;2022-10-16T01:22:36;14.289331358135678;;;14.187;100.0
15558;BME280;7880;50.110;9.372;2022-10-16T01:26:31;14.274203801114345;;;14.187;100.0
15558;BME280;7880;50.110;9.372;2022-10-16T01:31:31;14.334714044915746;;;14.25;100.0
15558;BME280;7880;50.110;9.372;2022-10-16T01:36:36;14.248991211899556;;;14.187;100.0
15558;BME280;7880;50.110;9.372;2022-10-16T01:41:38;14.279246319830417;;;14.187;100.0
15558;BME280;7880;50.110;9.372;2022-10-16T01:46:44;14.28428883883753;;;14.187;100.0
15558;BME280;7880;50.110;9.372;2022-10-16T01:51:52;14.274203801114345;;;14.187;100.0
15558;BME280;7880;50.110;9.372;2022-10-16T01:56:59;14.264118764555315;;;14.187;100.0
15558;BME280;7880;50.110;9.372;2022-10-16T02:02:00;14.248991211899556;;;14.187;100.0
15558;BME280;7880;50.110;9.372;2022-10-16T02:07:03;14.264118764555315;;;14.187;100.0
15558;BME280;7880;50.110;9.372;2022-10-16T02:12:14;14.228821145766414;;;14.187;100.0
15558;BME280;7880;50.110;9.372;2022-10-16T02:17:14;14.213693599222461;;;14.187;100.0
15558;BME280;7880;50.110;9.372;2022-10-16T02:22:23;14.183438513992588;;;14.125;100.0
15558;BME280;7880;50.110;9.372;2022-10-16T02:27:34;14.153183439240092;;;14.062;100.0
15558;BME280;7880;50.110;9.372;2022-10-16T02:32:30;14.072503291122848;;;14.0;100.0
15558;BME280;7880;50.110;9.372;2022-10-16T02:37:28;14.09267332116724;;;14.062;100.0
15558;BME280;7880;50.110;9.372;2022-10-16T02:42:40;14.112843355868245;;;14.062;100.0
15558;BME280;7880;50.110;9.372;2022-10-16T02:47:35;14.122928374964976;;;14.0;100.0
15558;BME280;7880;50.110;9.372;2022-10-16T02:52:42;14.072503291122848;;;14.0;100.0
15558;BME280;7880;50.110;9.372;2022-10-16T02:57:43;14.052333265735069;;;14.0;100.0
15558;BME280;7880;50.110;9.372;2022-10-16T03:02:46;14.04729076011572;;;13.937;100.0
15558;BME280;7880;50.110;9.372;2022-10-16T03:07:48;14.006950725638308;;;13.937;100.0
15558;BME280;7880;50.110;9.372;2022-10-16T03:12:53;14.04729076011572;;;13.937;100.0
15558;BME280;7880;50.110;9.372;2022-10-16T03:18:09;14.057375771645457;;;13.937;100.0
15558;BME280;7880;50.110;9.372;2022-10-16T03:23:04;14.067460784339346;;;13.937;100.0
15558;BME280;7880;50.110;9.372;2022-10-16T03:28:09;14.062418277846882;;;14.0;100.0
15558;BME280;7880;50.110;9.372;2022-10-16T03:33:17;14.067460784339346;;;14.0;100.0
15558;BME280;7880;50.110;9.372;2022-10-16T03:38:15;14.133013395225863;;;14.062;100.0
15558;BME280;7880;50.110;9.372;2022-10-16T03:43:18;14.133013395225863;;;14.062;100.0
15558;BME280;7880;50.110;9.372;2022-10-16T03:48:20;14.112843355868245;;;14.062;100.0
15558;BME280;7880;50.110;9.372;2022-10-16T03:53:26;14.158225950971246;;;14.062;100.0
15558;BME280;7880;50.110;9.372;2022-10-16T03:58:27;14.173353487910935;;;14.125;100.0
15558;BME280;7880;50.110;9.372;2022-10-16T04:03:30;14.178396000806242;;;14.125;100.0
15558;BME280;7880;50.110;9.372;2022-10-16T04:08:35;14.208651084289887;;;14.125;100.0
15558;BME280;7880;50.110;9.372;2022-10-16T04:13:36;14.223778629960725;;;14.187;100.0
15558;BME280;7880;50.110;9.372;2022-10-16T04:19:02;14.259076246712358;;;14.187;100.0
15558;BME280;7880;50.110;9.372;2022-10-16T04:23:44;14.233863661863143;;;14.187;100.0
15558;BME280;7880;50.110;9.372;2022-10-16T04:28:50;14.274203801114345;;;14.25;100.0
15558;BME280;7880;50.110;9.372;2022-10-16T04:33:54;14.299416397605091;;;14.25;100.0
15558;BME280;7880;50.110;9.372;2022-10-16T04:38:58;14.299416397605091;;;14.25;100.0
15558;BME280;7880;50.110;9.372;2022-10-16T04:44:02;14.314543958992;;;14.25;100.0
15558;BME280;7880;50.110;9.372;2022-10-16T04:49:06;14.324629001371795;;;14.312;100.0
15558;BME280;7880;50.110;9.372;2022-10-16T04:54:11;14.309501438238659;;;14.312;100.0
15558;BME280;7880;50.110;9.372;2022-10-16T04:59:16;14.319586480036378;;;14.25;100.0
15558;BME280;7880;50.110;9.372;2022-10-16T05:04:20;14.319586480036378;;;14.25;100.0
15558;BME280;7880;50.110;9.372;2022-10-16T05:09:25;14.334714044915746;;;14.312;100.0
15558;BME280;7880;50.110;9.372;2022-10-16T05:14:27;14.32967152299825;;;14.312;100.0
15558;BME280;7880;50.110;9.372;2022-10-16T05:19:32;14.354884135496103;;;14.312;100.0
15558;BME280;7880;50.110;9.372;2022-10-16T05:24:39;14.380096755269914;;;14.312;100.0
15558;BME280;7880;50.110;9.372;2022-10-16T05:29:42;14.339756567124278;;;14.312;100.0
15558;BME280;7880;50.110;9.372;2022-10-16T05:34:47;14.334714044915746;;;14.312;100.0
15558;BME280;7880;50.110;9.372;2022-10-16T05:39:53;14.319586480036378;;;14.25;100.0
15558;BME280;7880;50.110;9.372;2022-10-16T05:45:02;14.264118764555315;;;14.187;100.0
15558;BME280;7880;50.110;9.372;2022-10-16T05:50:03;14.228821145766414;;;14.187;100.0
15558;BME280;7880;50.110;9.372;2022-10-16T05:55:08;14.279246319830417;;;14.187;100.0
15558;BME280;7880;50.110;9.372;2022-10-16T06:00:11;14.233863661863143;;;14.125;100.0
15558;BME280;7880;50.110;9.372;2022-10-16T06:05:19;14.294373877724865;;;14.187;100.0
15558;BME280;7880;50.110;9.372;2022-10-16T06:10:18;14.294373877724865;;;14.25;100.0
15558;BME280;7880;50.110;9.372;2022-10-16T06:15:27;14.319586480036378;;;14.25;100.0
15558;BME280;7880;50.110;9.372;2022-10-16T06:20:32;14.324629001371795;;;14.25;100.0
15558;BME280;7880;50.110;9.372;2022-10-16T06:25:30;14.410351908602753;;;14.312;100.0
15558;BME280;7880;50.110;9.372;2022-10-16T06:30:36;14.425479489198187;;;14.375;100.0
15558;BME280;7880;50.110;9.372;2022-10-16T06:35:36;14.430522016645408;;;14.375;100.0
15558;BME280;7880;50.110;9.372;2022-10-16T06:40:38;14.400266856327653;;;14.312;100.0
15558;BME280;7880;50.110;9.372;2022-10-16T06:45:42;14.420436962042004;;;14.312;100.0
15558;BME280;7880;50.110;9.372;2022-10-16T06:50:55;14.475904776767129;;;14.375;100.0
15558;BME280;7880;50.110;9.372;2022-10-16T06:56:06;14.506159963278332;;;14.437;100.0
15558;BME280;7880;50.110;9.372;2022-10-16T07:00:55;14.561627832427622;;;14.5;100.0
15558;BME280;7880;50.110;9.372;2022-10-16T07:06:03;14.536415160266916;;;14.5;100.0
15558;BME280;7880;50.110;9.372;2022-10-16T07:11:05;14.617095736792544;;;14.562;100.0
15558;BME280;7880;50.110;9.372;2022-10-16T07:16:05;14.601968123018741;;;14.562;100.0
15558;BME280;7880;50.110;9.372;2022-10-16T07:21:10;14.657436052995035;;;14.625;100.0
15558;BME280;7880;50.110;9.372;2022-10-16T07:26:11;14.687691302370514;;;14.625;100.0
15558;BME280;7880;50.110;9.372;2022-10-16T07:31:16;14.702818930987268;;;14.625;100.0
15558;BME280;7880;50.110;9.372;2022-10-16T07:36:23;14.733074196078814;;;14.687;100.0
15558;BME280;7880;50.110;9.372;2022-10-16T07:41:37;14.728031651169294;;;14.687;100.0
15558;BME280;7880;50.110;9.372;2022-10-16T07:46:37;14.778457113361219;;;14.687;100.0
15558;BME280;7880;50.110;9.372;2022-10-16T07:51:40;14.828882604656973;;;14.75;100.0
15558;BME280;7880;50.110;9.372;2022-10-16T07:56:43;14.83392515538726;;;14.75;100.0
15558;BME280;7880;50.110;9.372;2022-10-16T08:01:50;14.849052809324348;;;14.75;100.0
15558;BME280;7880;50.110;9.372;2022-10-16T08:06:50;14.884350678697228;;;14.812;100.0
15558;BME280;7880;50.110;9.372;2022-10-16T08:11:53;14.879308125056559;;;14.812;100.0
15558;BME280;7880;50.110;9.372;2022-10-16T08:16:59;14.884350678697228;;;14.812;100.0
15558;BME280;7880;50.110;9.372;2022-10-16T08:22:01;14.909563451266148;;;14.812;100.0
15558;BME280;7880;50.110;9.372;2022-10-16T08:27:04;14.889393232628937;;;14.812;100.0
15558;BME280;7880;50.110;9.372;2022-10-16T08:32:12;14.970074135117466;;;14.875;100.0
15558;BME280;7880;50.110;9.372;2022-10-16T08:37:11;15.035627423250116;;;14.937;100.0
15558;BME280;7880;50.110;9.372;2022-10-16T08:42:23;14.990244372381131;;;14.937;100.0
15558;BME280;7880;50.110;9.372;2022-10-16T08:47:23;15.161691577133023;;;15.062;100.0
15558;BME280;7880;50.110;9.372;2022-10-16T08:52:24;15.176819287822582;;;15.125;100.0
15558;BME280;7880;50.110;9.372;2022-10-16T08:57:27;15.14152130028815;;;15.062;100.0
15558;BME280;7880;50.110;9.372;2022-10-16T09:02:37;15.136478731804527;;;15.062;100.0
15558;BME280;7880;50.110;9.372;2022-10-16T09:07:39;15.14152130028815;;;15.062;100.0
15558;BME280;7880;50.110;9.372;2022-10-16T09:12:52;15.161691577133023;;;15.062;100.0
15558;BME280;7880;50.110;9.372;2022-10-16T09:17:54;15.14152130028815;;;15.062;100.0
15558;BME280;7880;50.110;9.372;2022-10-16T09:23:07;15.20203214479261;;;15.125;100.0
15558;BME280;7880;50.110;9.372;2022-10-16T09:27:52;15.207074717059731;;;15.125;100.0
15558;BME280;7880;50.110;9.372;2022-10-16T09:32:58;15.292798490129645;;;15.25;100.0
15558;BME280;7880;50.110;9.372;2022-10-16T09:37:55;15.333139118325198;;;15.25;100.0
15558;BME280;7880;50.110;9.372;2022-10-16T09:43:03;15.30792622352019;;;15.25;100.0
15558;BME280;7880;50.110;9.372;2022-10-16T09:48:10;15.393650095543126;;;15.312;100.0
15558;BME280;7880;50.110;9.372;2022-10-16T09:53:11;15.449118528142572;;;15.375;100.0
15558;BME280;7880;50.110;9.372;2022-10-16T09:58:13;15.519714766019025;;;15.437;100.0
15558;BME280;7880;50.110;9.372;2022-10-16T10:03:11;15.519714766019025;;;15.437;100.0
15558;BME280;7880;50.110;9.372;2022-10-16T10:08:16;15.585268466552952;;;15.5;100.0
15558;BME280;7880;50.110;9.372;2022-10-16T10:13:21;15.665950011654058;;;15.562;100.0
15558;BME280;7880;50.110;9.372;2022-10-16T10:18:22;15.80714289486059;;;15.687;100.0
15558;BME280;7880;50.110;9.372;2022-10-16T10:23:27;15.913037707004696;;;15.812;100.0
15558;BME280;7880;50.110;9.372;2022-10-16T10:28:42;15.998762172745774;;;15.937;100.0
15558;BME280;7880;50.110;9.372;2022-10-16T10:33:40;16.371916709427023;;;16.312;100.0
15558;BME280;7880;50.110;9.372;2022-10-16T10:38:50;16.437471049372107;;;16.375;100.0
15558;BME280;7880;50.110;9.372;2022-10-16T10:43:52;16.472769560484448;;;16.437;100.0
15558;BME280;7880;50.110;9.372;2022-10-16T10:48:58;16.58875048311893;;;16.5;100.0
15558;BME280;7880;50.110;9.372;2022-10-16T10:53:59;16.850968788773752;;;16.75;100.0
15558;BME280;7880;50.110;9.372;2022-10-16T10:59:19;17.05771839232766;;;17.062;100.0
15558;BME280;7880;50.110;9.372;2022-10-16T11:04:25;17.002248938474803;;;17.062;100.0
15558;BME280;7880;50.110;9.372;2022-10-16T11:09:18;16.770286149368623;;;16.812;100.0
15558;BME280;7880;50.110;9.372;2022-10-16T11:14:19;16.729944857605734;;;16.687;100.0
15558;BME280;7880;50.110;9.372;2022-10-16T11:19:29;16.8560114562104;;;16.812;100.0
15558;BME280;7880;50.110;9.372;2022-10-16T11:24:35;16.81062745975796;;;16.75;100.0
15558;BME280;7880;50.110;9.372;2022-10-16T11:29:30;17.0072916146426;;;16.937;100.0
15558;BME280;7880;50.110;9.372;2022-10-16T11:34:49;16.876182128867367;;;16.875;100.0
15558;BME280;7880;50.110;9.372;2022-10-16T11:39:50;16.93165150268469;;;16.812;100.0
15558;BME280;7880;50.110;9.372;2022-10-16T11:45:04;16.987120911717646;;;16.937;100.0
15558;BME280;7880;50.110;9.372;2022-10-16T11:50:03;17.05771839232766;;;17.0;100.0
15558;BME280;7880;50.110;9.372;2022-10-16T11:55:14;17.264468485116957;;;17.125;100.0
15558;BME280;7880;50.110;9.372;2022-10-16T12:00:28;17.19387083745096;;;17.187;100.0
15558;BME280;7880;50.110;9.372;2022-10-16T12:05:21;17.22412696518004;;;17.187;100.0
15558;BME280;7880;50.110;9.372;2022-10-16T12:10:21;17.188828150514745;;;17.187;100.0
15558;BME280;7880;50.110;9.372;2022-10-16T12:15:25;17.148486665502425;;;17.125;100.0
15558;BME280;7880;50.110;9.372;2022-10-16T12:20:33;17.188828150514745;;;17.125;100.0
15558;BME280;7880;50.110;9.372;2022-10-16T12:25:33;17.309852717310424;;;17.25;100.0
15558;BME280;7880;50.110;9.372;2022-10-16T12:30:37;17.299767330341275;;;17.25;100.0
15558;BME280;7880;50.110;9.372;2022-10-16T12:35:43;17.52668881872669;;;17.5;100.0
15558;BME280;7880;50.110;9.372;2022-10-16T12:40:57;17.410706651030342;;;17.375;100.0
15558;BME280;7880;50.110;9.372;2022-10-16T12:46:00;17.471219067141647;;;17.437;100.0
15558;BME280;7880;50.110;9.372;2022-10-16T12:50:57;17.395578553550877;;;17.375;100.0
15558;BME280;7880;50.110;9.372;2022-10-16T12:56:20;17.33002349474118;;;17.312;100.0
15558;BME280;7880;50.110;9.372;2022-10-16T13:01:34;17.299767330341275;;;17.312;100.0
15558;BME280;7880;50.110;9.372;2022-10-16T13:06:25;17.309852717310424;;;17.25;100.0
15558;BME280;7880;50.110;9.372;2022-10-16T13:11:27;17.52668881872669;;;17.437;100.0
15558;BME280;7880;50.110;9.372;2022-10-16T13:16:42;17.52668881872669;;;17.5;100.0
15558;BME280;7880;50.110;9.372;2022-10-16T13:21:38;17.597286735312082;;;17.5;100.0
15558;BME280;7880;50.110;9.372;2022-10-16T13:26:55;17.65275656693266;;;17.625;100.0
15558;BME280;7880;50.110;9.372;2022-10-16T13:31:44;17.622500290774042;;;17.625;100.0
15558;BME280;7880;50.110;9.372;2022-10-16T13:36:51;17.587201315164567;;;17.562;100.0
15558;BME280;7880;50.110;9.372;2022-10-16T13:42:03;17.415749350772238;;;17.437;100.0
15558;BME280;7880;50.110;9.372;2022-10-16T13:47:36;17.370365063572535;;;17.312;100.0
15558;BME280;7880;50.110;9.372;2022-10-16T13:52:41;17.34010888520279;;;17.312;100.0
15558;BME280;7880;50.110;9.372;2022-10-16T13:57:46;17.415749350772238;;;17.375;100.0
15558;BME280;7880;50.110;9.372;2022-10-16T14:02:57;17.39053585497313;;;17.375;100.0
15558;BME280;7880;50.110;9.372;2022-10-16T14:08:03;17.34010888520279;;;17.312;100.0
15558;BME280;7880;50.110;9.372;2022-10-16T14:13:05;17.30481002368033;;;17.25;100.0
15558;BME280;7880;50.110;9.372;2022-10-16T14:18:16;17.264468485116957;;;17.187;100.0
15558;BME280;7880;50.110;9.372;2022-10-16T14:23:21;17.239255032973595;;;17.187;100.0
15558;BME280;7880;50.110;9.372;2022-10-16T14:28:21;17.299767330341275;;;17.187;100.0
15558;BME280;7880;50.110;9.372;2022-10-16T14:33:33;17.294724637293257;;;17.187;100.0
15558;BME280;7880;50.110;9.372;2022-10-16T14:38:28;17.22916965415352;;;17.187;100.0
15558;BME280;7880;50.110;9.372;2022-10-16T14:43:36;17.188828150514745;;;17.125;100.0
15558;BME280;7880;50.110;9.372;2022-10-16T14:48:40;17.163614720199256;;;17.062;100.0
15558;BME280;7880;50.110;9.372;2022-10-16T14:53:45;17.12831592998118;;;17.0;100.0
15558;BME280;7880;50.110;9.372;2022-10-16T14:58:51;17.08293179208413;;;17.0;100.0
15558;BME280;7880;50.110;9.372;2022-10-16T15:03:55;17.037547677761175;;;16.937;100.0
15558;BME280;7880;50.110;9.372;2022-10-16T15:09:06;17.017376967851305;;;16.937;100.0
15558;BME280;7880;50.110;9.372;2022-10-16T15:14:06;16.946779519837584;;;16.875;100.0
15558;BME280;7880;50.110;9.372;2022-10-16T15:19:10;16.987120911717646;;;16.875;100.0
15558;BME280;7880;50.110;9.372;2022-10-16T15:24:19;17.012334291101432;;;16.875;100.0
15558;BME280;7880;50.110;9.372;2022-10-16T15:29:19;16.946779519837584;;;16.812;100.0
15558;BME280;7880;50.110;9.372;2022-10-16T15:34:24;16.916523488151142;;;16.812;100.0
15558;BME280;7880;50.110;9.372;2022-10-16T15:39:29;16.8560114562104;;;16.75;100.0
15558;BME280;7880;50.110;9.372;2022-10-16T15:44:33;16.795499466179173;;;16.687;100.0
15558;BME280;7880;50.110;9.372;2022-10-16T15:49:38;16.785414138581835;;;16.625;100.0
15558;BME280;7880;50.110;9.372;2022-10-16T15:54:52;16.694646242592718;;;16.562;100.0
15558;BME280;7880;50.110;9.372;2022-10-16T15:59:47;16.674475611845264;;;16.5;100.0
15558;BME280;7880;50.110;9.372;2022-10-16T16:04:52;16.58875048311893;;;16.437;100.0
15558;BME280;7880;50.110;9.372;2022-10-16T16:10:10;16.558494575414805;;;16.437;100.0
15558;BME280;7880;50.110;9.372;2022-10-16T16:14:59;16.528238678188064;;;16.312;100.0
15558;BME280;7880;50.110;9.372;2022-10-16T16:20:06;16.45259898095974;;;16.312;100.0
15558;BME280;7880;50.110;9.372;2022-10-16T16:25:09;16.37695934921503;;;16.187;100.0
15558;BME280;7880;50.110;9.372;2022-10-16T16:30:20;16.27106397478492;;;16.125;100.0
15558;BME280;7880;50.110;9.372;2022-10-16T16:35:20;16.215595020353796;;;16.062;100.0
15558;BME280;7880;50.110;9.372;2022-10-16T16:38:56;16.180296613142126;;;16.0;100.0
15558;BME280;7880;50.110;9.372;2022-10-16T16:44:06;16.109699841501424;;;15.937;100.0
15558;BME280;7880;50.110;9.372;2022-10-16T16:49:07;16.03910312690423;;;15.875;100.0
15558;BME280;7880;50.110;9.372;2022-10-16T16:54:14;16.03910312690423;;;15.812;100.0
15558;BME280;7880;50.110;9.372;2022-10-16T16:59:19;15.963463853136636;;;15.75;100.0
15558;BME280;7880;50.110;9.372;2022-10-16T17:04:27;15.907995093992213;;;15.687;100.0
15558;BME280;7880;50.110;9.372;2022-10-16T17:09:34;15.88278203329537;;;15.687;100.0
15558;BME280;7880;50.110;9.372;2022-10-16T17:14:34;15.76680204780423;;;15.625;100.0
15558;BME280;7880;50.110;9.372;2022-10-16T17:19:45;15.716376015177229;;;15.437;100.0
15558;BME280;7880;50.110;9.372;2022-10-16T17:24:48;15.731503821909428;;;15.5;100.0
15558;BME280;7880;50.110;9.372;2022-10-16T17:30:04;15.76680204780423;;;15.5;100.0
15558;BME280;7880;50.110;9.372;2022-10-16T17:34:59;15.731503821909428;;;15.5;100.0
15558;BME280;7880;50.110;9.372;2022-10-16T17:40:03;15.726461219374324;;;15.5;100.0
15558;BME280;7880;50.110;9.372;2022-10-16T17:45:08;15.731503821909428;;;15.5;100.0
15558;BME280;7880;50.110;9.372;2022-10-16T17:50:12;15.716376015177229;;;15.562;100.0
15558;BME280;7880;50.110;9.372;2022-10-16T17:55:18;15.73654642473557;;;15.562;100.0
15558;BME280;7880;50.110;9.372;2022-10-16T18:00:24;15.655864814441884;;;15.5;100.0
15558;BME280;7880;50.110;9.372;2022-10-16T18:05:29;15.650822216272354;;;15.5;100.0
15558;BME280;7880;50.110;9.372;2022-10-16T18:10:34;15.595353655616055;;;15.437;100.0
15558;BME280;7880;50.110;9.372;2022-10-16T18:15:40;15.575183278654004;;;15.375;100.0
15558;BME280;7880;50.110;9.372;2022-10-16T18:20:55;15.50962958568707;;;15.312;100.0
15558;BME280;7880;50.110;9.372;2022-10-16T18:25:50;15.464246288599679;;;15.25;100.0
15558;BME280;7880;50.110;9.372;2022-10-16T18:30:55;15.408777846395969;;;15.187;100.0
15558;BME280;7880;50.110;9.372;2022-10-16T18:36:03;15.353309439407894;;;15.125;100.0
15558;BME280;7880;50.110;9.372;2022-10-16T18:41:02;15.252457880560542;;;15.062;100.0
15558;BME280;7880;50.110;9.372;2022-10-16T18:46:09;15.171776717301691;;;15.0;100.0
15558;BME280;7880;50.110;9.372;2022-10-16T18:51:16;15.10118076056824;;;14.875;100.0
15558;BME280;7880;50.110;9.372;2022-10-16T18:56:18;15.070925368001918;;;14.812;100.0
15558;BME280;7880;50.110;9.372;2022-10-16T19:01:23;14.959989018231862;;;14.75;100.0
15558;BME280;7880;50.110;9.372;2022-10-16T19:06:27;14.899478341365466;;;14.625;100.0
15558;BME280;7880;50.110;9.372;2022-10-16T19:11:31;14.884350678697228;;;14.625;100.0
15558;BME280;7880;50.110;9.372;2022-10-16T19:16:35;14.778457113361219;;;14.562;100.0
15558;BME280;7880;50.110;9.372;2022-10-16T19:21:40;14.622138275299221;;;14.5;100.0
15558;BME280;7880;50.110;9.372;2022-10-16T19:26:57;14.6776062180812;;;14.5;100.0
15558;BME280;7880;50.110;9.372;2022-10-16T19:32:01;14.622138275299221;;;14.437;100.0
15558;BME280;7880;50.110;9.372;2022-10-16T19:36:54;14.566670367732877;;;14.375;100.0
15558;BME280;7880;50.110;9.372;2022-10-16T19:41:57;14.475904776767129;;;14.25;100.0
15558;BME280;7880;50.110;9.372;2022-10-16T19:47:05;14.364969182532514;;;14.187;100.0
15558;BME280;7880;50.110;9.372;2022-10-16T19:52:11;14.35992665886879;;;14.125;100.0
15558;BME280;7880;50.110;9.372;2022-10-16T19:57:16;14.299416397605091;;;14.125;100.0
15558;BME280;7880;50.110;9.372;2022-10-16T20:02:21;14.28428883883753;;;14.062;100.0
15558;BME280;7880;50.110;9.372;2022-10-16T20:07:30;14.18848102746997;;;14.0;100.0
15558;BME280;7880;50.110;9.372;2022-10-16T20:12:32;14.153183439240092;;;13.937;100.0
15558;BME280;7880;50.110;9.372;2022-10-16T20:17:37;14.032163245003904;;;13.875;100.0
15558;BME280;7880;50.110;9.372;2022-10-16T20:22:50;14.04224825478741;;;13.812;100.0
15558;BME280;7880;50.110;9.372;2022-10-16T20:27:46;14.072503291122848;;;13.875;100.0
15558;BME280;7880;50.110;9.372;2022-10-16T20:32:51;14.072503291122848;;;13.812;100.0
15558;BME280;7880;50.110;9.372;2022-10-16T20:37:55;14.04729076011572;;;13.812;100.0
15558;BME280;7880;50.110;9.372;2022-10-16T20:43:03;14.027120740548707;;;13.875;100.0
15558;BME280;7880;50.110;9.372;2022-10-16T20:48:03;13.986780715384521;;;13.812;100.0
15558;BME280;7880;50.110;9.372;2022-10-16T20:53:09;13.916185716167092;;;13.75;100.0
15558;BME280;7880;50.110;9.372;2022-10-16T20:58:16;13.951483208645367;;;13.75;100.0
15558;BME280;7880;50.110;9.372;2022-10-16T21:03:18;13.901058223756262;;;13.75;100.0
15558;BME280;7880;50.110;9.372;2022-10-16T21:08:20;13.835505786910653;;;13.687;100.0
15558;BME280;7880;50.110;9.372;2022-10-16T21:13:38;13.764910909929313;;;13.562;100.0
15558;BME280;7880;50.110;9.372;2022-10-16T21:18:30;13.74978344371193;;;13.562;100.0
15558;BME280;7880;50.110;9.372;2022-10-16T21:23:35;13.72457100583706;;;13.562;100.0
15558;BME280;7880;50.110;9.372;2022-10-16T21:28:50;13.699358575238147;;;13.5;100.0
15558;BME280;7880;50.110;9.372;2022-10-16T21:33:46;13.568254053412238;;;13.437;100.0
15558;BME280;7880;50.110;9.372;2022-10-16T21:38:51;13.432107258215547;;;13.25;100.0
15558;BME280;7880;50.110;9.372;2022-10-16T21:43:10;13.588423967041308;;;13.437;100.0
15558;BME280;7880;50.110;9.372;2022-10-16T21:48:14;13.583381488197483;;;13.375;100.0
15558;BME280;7880;50.110;9.372;2022-10-16T21:53:18;13.457319611689309;;;13.312;100.0
15558;BME280;7880;50.110;9.372;2022-10-16T21:58:23;13.306045599986101;;;13.187;100.0
15558;BME280;7880;50.110;9.372;2022-10-16T22:03:28;13.386725040298188;;;13.187;100.0
15558;BME280;7880;50.110;9.372;2022-10-16T22:08:38;13.376640106184642;;;13.187;100.0
15558;BME280;7880;50.110;9.372;2022-10-16T22:13:46;13.306045599986101;;;13.125;100.0
15558;BME280;7880;50.110;9.372;2022-10-16T22:18:46;13.411937380675226;;;13.187;100.0
15558;BME280;7880;50.110;9.372;2022-10-16T22:23:53;13.401852443651297;;;13.25;100.0
15558;BME280;7880;50.110;9.372;2022-10-16T22:29:04;13.381682573095896;;;13.187;100.0
15558;BME280;7880;50.110;9.372;2022-10-16T22:34:04;13.290918213222175;;;13.187;100.0
15558;BME280;7880;50.110;9.372;2022-10-16T22:39:10;13.28587575154961;;;13.125;100.0
15558;BME280;7880;50.110;9.372;2022-10-16T22:44:22;13.19511149121099;;;13.062;100.0
15558;BME280;7880;50.110;9.372;2022-10-16T22:49:26;13.215281318692723;;;13.0;100.0
15558;BME280;7880;50.110;9.372;2022-10-16T22:54:23;13.185026579216355;;;13.062;100.0
15558;BME280;7880;50.110;9.372;2022-10-16T22:59:29;13.22536623417982;;;13.062;100.0
15558;BME280;7880;50.110;9.372;2022-10-16T23:04:35;13.24049360959325;;;13.062;100.0
15558;BME280;7880;50.110;9.372;2022-10-16T23:09:41;13.24553606864647;;;13.062;100.0
15558;BME280;7880;50.110;9.372;2022-10-16T23:14:49;13.023668145627017;;;12.937;100.0
15558;BME280;7880;50.110;9.372;2022-10-16T23:19:55;12.953073924646015;;;12.812;100.0
15558;BME280;7880;50.110;9.372;2022-10-16T23:25:06;12.953073924646015;;;12.812;100.0
15558;BME280;7880;50.110;9.372;2022-10-16T23:30:08;12.827012957632542;;;12.687;100.0
15558;BME280;7880;50.110;9.372;2022-10-16T23:35:15;12.771546189772199;;;12.625;100.0
15558;BME280;7880;50.110;9.372;2022-10-16T23:40:18;12.84718270013109;;;12.625;100.0
15558;BME280;7880;50.110;9.372;2022-10-16T23:45:23;12.827012957632542;;;12.625;100.0
15558;BME280;7880;50.110;9.372;2022-10-16T23:50:30;12.942989040591055;;;12.75;100.0